Pass Lake, Canada
Current Conditions -  °F | °C
As of 7:00 PM on Monday 24 Nov 2014 (Local Time) from CYQT Reporting Station
Light Snow Light Snow  
Wind Chill:   Ceiling: 4100
Heat Index: 19°   Visibility: 8mi
Dew Point: 12°   Wind: 13mph
Humidity: 74%   Direction: 340°NNW
Pressure: 29.56"   Gusts: 20mph
Location:  48.57°N, 88.73°W
Report Text: CYQT 250000Z 34011G17KT 300V010 8SM -SN DRSN OVC041 M07/M11 A2956 RMK SC8 PRESRR SLP023
Loading
Personal Weather Stations






























Interactive Weather Map New forecast layout! Learn more

10-Day Weather Forecast

Advertisements
Track Severe Weather on mobile